Ursine, Nevada
Current Conditions -  °F | °C
As of 4:53 PM on Monday 20 Oct 2014 (Local Time) from KELY Reporting Station
Scattered Clouds Scattered Clouds  
Wind Chill: 68°   Ceiling: Unl
Heat Index: 68°   Visibility: 10mi
Dew Point: 29°   Wind: 18mph
Humidity: 23%   Direction: 200°SSW
Pressure: 29.99"   Gusts: 26mph
Location:  38.2635°N, 114.484°W
Report Text: KELY 202353Z AUTO 20016G23KT 10SM SCT090 20/M02 A2999 RMK AO2 SLP093 T02001017 10222 20200 58011
Loading
Personal Weather Stations






























Interactive Weather Map
Tropical Storm Tracking
New forecast layout! Learn more

10-Day Weather Forecast

Advertisements
Track Severe Weather on mobile